Time;durP1;ratioP1;P1;durP2;ratioP2;P2;SDS_P1;SDS_P2;PMS_P1;PMS_P2;Temp;Humidity;BMP_temperature;BMP_pressure;BME280_temperature;BME280_humidity;BME280_pressure;Samples;Min_cycle;Max_cycle;Signal;HPM_P1;HPM_P2
2023/10/14 00:01:30;;;;;;;;;;;;;;;16.89;47.89;99942.94;5073839;28;19920;-77
2023/10/14 00:03:56;;;;;;;;;;;;;;;16.82;47.77;99942.16;5073649;28;19920;-77
2023/10/14 00:06:22;;;;;;;;;;;;;;;16.75;47.79;99936.81;5073709;28;19923;-77
2023/10/14 00:09:01;;;;;;;;;;;;;;;16.71;47.96;99932.13;5072487;28;19913;-78
2023/10/14 00:11:35;;;;;;;;;;;;;;;16.68;47.89;99929.88;5072499;28;19916;-78
2023/10/14 00:14:02;;;;;;;;;;;;;;;16.58;47.76;99924.94;5073754;28;19994;-77
2023/10/14 00:18:55;;;;;;;;;;;;;;;16.40;48.61;99919.41;5074009;28;19924;-77
2023/10/14 00:21:21;;;;;;;;;;;;;;;16.40;48.23;99920.25;5073650;28;19912;-78
2023/10/14 00:23:47;;;;;;;;;;;;;;;16.39;48.11;99910.59;5073404;28;19935;-77
2023/10/14 00:26:16;;;;;;;;;;;;;;;16.40;48.30;99908.75;5073528;28;19912;-77
2023/10/14 00:28:45;;;;;;;;;;;;;;;16.38;48.57;99908.97;5073642;28;20313;-77
2023/10/14 00:31:15;;;;;;;;;;;;;;;16.37;47.84;99903.84;5072156;28;20317;-77
2023/10/14 00:33:40;;;;;;;;;;;;;;;16.31;48.05;99899.31;5071933;28;20050;-77
2023/10/14 00:36:10;;;;;;;;;;;;;;;16.28;48.33;99902.38;5073463;28;19969;-77
2023/10/14 00:38:39;;;;;;;;;;;;;;;16.23;48.06;99895.00;5071834;28;20320;-77
2023/10/14 00:41:08;;;;;;;;;;;;;;;16.21;48.29;99894.41;5073057;28;19973;-77
2023/10/14 00:43:34;;;;;;;;;;;;;;;16.19;48.67;99899.13;5073235;28;19912;-77
2023/10/14 00:45:59;;;;;;;;;;;;;;;16.14;48.26;99905.06;5073065;28;19912;-77
2023/10/14 00:48:27;;;;;;;;;;;;;;;16.15;48.05;99897.88;5072933;28;19919;-76
2023/10/14 00:50:59;;;;;;;;;;;;;;;16.17;47.71;99887.84;5072081;28;19973;-77
2023/10/14 00:53:28;;;;;;;;;;;;;;;16.11;48.03;99892.16;5071642;28;20003;-77
2023/10/14 00:55:54;;;;;;;;;;;;;;;16.11;48.44;99897.47;5073060;28;20393;-77
2023/10/14 00:58:28;;;;;;;;;;;;;;;16.10;48.44;99893.19;5071874;28;19912;-77
2023/10/14 01:01:00;;;;;;;;;;;;;;;16.06;48.10;99894.59;5072884;28;19913;-76
2023/10/14 01:03:25;;;;;;;;;;;;;;;16.09;48.38;99896.03;5071227;28;20312;-77
2023/10/14 01:05:53;;;;;;;;;;;;;;;16.14;48.21;99898.91;5072602;28;19912;-77
2023/10/14 01:08:22;;;;;;;;;;;;;;;16.17;48.17;99887.84;5072517;28;20436;-77
2023/10/14 01:10:49;;;;;;;;;;;;;;;16.12;48.34;99888.47;5072329;28;19966;-76
2023/10/14 01:13:15;;;;;;;;;;;;;;;16.09;48.31;99890.72;5072438;28;19982;-77
2023/10/14 01:15:47;;;;;;;;;;;;;;;16.04;49.11;99891.34;5072431;28;19948;-76
2023/10/14 01:18:14;;;;;;;;;;;;;;;16.02;48.45;99895.22;5072359;28;19955;-77
2023/10/14 01:20:40;;;;;;;;;;;;;;;15.99;48.61;99890.31;5072292;28;19916;-76
2023/10/14 01:23:12;;;;;;;;;;;;;;;15.95;48.64;99887.22;5072240;28;19913;-77
2023/10/14 01:26:11;;;;;;;;;;;;;;;15.89;48.80;99890.72;5072283;28;19919;-77
2023/10/14 01:28:33;;;;;;;;;;;;;;;15.88;48.66;99883.75;5070031;28;19913;-76
2023/10/14 01:31:51;;;;;;;;;;;;;;;15.88;48.42;99881.09;5073800;28;19909;-76
2023/10/14 01:34:22;;;;;;;;;;;;;;;15.82;48.77;99880.06;5074516;28;19917;-76
2023/10/14 01:36:47;;;;;;;;;;;;;;;15.80;48.80;99881.28;5074308;28;20007;-76
2023/10/14 01:39:21;;;;;;;;;;;;;;;15.79;49.09;99871.66;5073324;28;19913;-79
2023/10/14 01:41:46;;;;;;;;;;;;;;;15.78;48.97;99878.81;5072175;28;19912;-78
2023/10/14 01:44:15;;;;;;;;;;;;;;;15.77;49.22;99871.84;5072867;28;19987;-78
2023/10/14 01:46:45;;;;;;;;;;;;;;;15.72;48.97;99874.31;5071919;28;19919;-78
2023/10/14 01:49:15;;;;;;;;;;;;;;;15.68;48.70;99869.59;5072044;28;20551;-78
2023/10/14 01:51:40;;;;;;;;;;;;;;;15.67;49.24;99871.44;5070646;28;19999;-78
2023/10/14 01:54:09;;;;;;;;;;;;;;;15.62;49.71;99867.75;5071638;28;20036;-75
2023/10/14 01:56:34;;;;;;;;;;;;;;;15.53;49.58;99864.41;5071755;28;19925;-76
2023/10/14 01:59:00;;;;;;;;;;;;;;;15.50;49.50;99865.63;5071897;28;20007;-78
2023/10/14 02:01:27;;;;;;;;;;;;;;;15.50;49.29;99862.13;5071564;28;19913;-77
2023/10/14 02:03:54;;;;;;;;;;;;;;;15.48;49.02;99875.66;5071549;28;19928;-78
2023/10/14 02:06:21;;;;;;;;;;;;;;;15.44;49.11;99873.59;5071796;28;20024;-79
2023/10/14 02:08:48;;;;;;;;;;;;;;;15.37;49.03;99862.94;5071729;28;19913;-77
2023/10/14 02:11:16;;;;;;;;;;;;;;;15.34;49.35;99857.19;5071848;28;19923;-77
2023/10/14 02:13:41;;;;;;;;;;;;;;;15.31;49.38;99855.75;5071563;28;19916;-77
2023/10/14 02:16:09;;;;;;;;;;;;;;;15.30;49.47;99859.44;5071771;28;20355;-75
2023/10/14 02:18:38;;;;;;;;;;;;;;;15.32;49.38;99860.06;5072074;28;19920;-77
2023/10/14 02:21:16;;;;;;;;;;;;;;;15.29;49.38;99849.00;5071782;28;19912;-77
2023/10/14 02:23:49;;;;;;;;;;;;;;;15.25;49.36;99856.56;5071903;28;19920;-78
2023/10/14 02:26:33;;;;;;;;;;;;;;;15.22;48.83;99856.97;5071994;28;19912;-77
2023/10/14 02:28:59;;;;;;;;;;;;;;;15.21;49.33;99856.13;5071955;28;19966;-77
2023/10/14 02:33:57;;;;;;;;;;;;;;;15.14;49.71;99860.63;5072067;28;19925;-77
2023/10/14 02:36:28;;;;;;;;;;;;;;;15.14;49.51;99860.63;5071847;28;19912;-77
2023/10/14 02:38:53;;;;;;;;;;;;;;;15.15;49.24;99856.13;5071724;28;19999;-77
2023/10/14 02:41:20;;;;;;;;;;;;;;;15.15;49.36;99859.59;5071978;28;19947;-77
2023/10/14 02:43:49;;;;;;;;;;;;;;;15.07;49.47;99865.09;5071658;28;19913;-78
2023/10/14 02:46:20;;;;;;;;;;;;;;;15.08;48.89;99857.94;5071534;28;19919;-77
2023/10/14 02:48:55;;;;;;;;;;;;;;;15.06;49.41;99859.97;5071639;28;20003;-77
2023/10/14 02:51:35;;;;;;;;;;;;;;;15.08;49.03;99860.59;5071592;28;19996;-77
2023/10/14 02:54:04;;;;;;;;;;;;;;;15.11;48.99;99858.38;5071308;28;19916;-78
2023/10/14 02:56:34;;;;;;;;;;;;;;;15.10;49.36;99864.69;5071425;28;19912;-78
2023/10/14 02:58:59;;;;;;;;;;;;;;;15.11;49.05;99853.03;5071567;28;19913;-77
2023/10/14 03:01:31;;;;;;;;;;;;;;;15.07;48.84;99849.16;5071595;28;20359;-77
2023/10/14 03:03:56;;;;;;;;;;;;;;;15.06;48.94;99858.13;5071253;28;19928;-77
2023/10/14 03:06:22;;;;;;;;;;;;;;;15.08;48.87;99864.06;5071700;28;19912;-76
2023/10/14 03:08:57;;;;;;;;;;;;;;;15.04;48.81;99867.34;5071557;28;19916;-77
2023/10/14 03:11:25;;;;;;;;;;;;;;;14.93;49.26;99879.38;5071418;28;19915;-77
2023/10/14 03:13:51;;;;;;;;;;;;;;;14.90;50.12;99871.78;5073349;28;19928;-77
2023/10/14 03:16:17;;;;;;;;;;;;;;;14.86;50.20;99866.03;5074717;28;19912;-76
2023/10/14 03:18:44;;;;;;;;;;;;;;;14.84;50.20;99861.91;5074502;28;19919;-77
2023/10/14 03:21:09;;;;;;;;;;;;;;;14.79;50.25;99861.69;5073248;28;19940;-78
2023/10/14 03:23:35;;;;;;;;;;;;;;;14.78;50.49;99862.69;5074522;28;19955;-77
2023/10/14 03:26:13;;;;;;;;;;;;;;;14.74;50.98;99866.78;5074825;28;20365;-78
2023/10/14 03:28:38;;;;;;;;;;;;;;;14.70;50.96;99868.19;5074390;28;19957;-78
2023/10/14 03:31:08;;;;;;;;;;;;;;;14.73;50.32;99857.97;5074459;28;20418;-77
2023/10/14 03:33:42;;;;;;;;;;;;;;;14.74;50.29;99864.94;5074335;28;19924;-77
2023/10/14 03:36:08;;;;;;;;;;;;;;;14.63;51.15;99866.31;5074355;28;19913;-77
2023/10/14 03:41:03;;;;;;;;;;;;;;;14.55;50.89;99876.28;5074572;28;19912;-78
2023/10/14 03:43:42;;;;;;;;;;;;;;;14.55;51.09;99865.66;5074298;28;20009;-78
2023/10/14 03:46:11;;;;;;;;;;;;;;;14.54;50.47;99875.47;5074220;28;20385;-78
2023/10/14 03:48:45;;;;;;;;;;;;;;;14.54;51.15;99874.63;5074038;28;19913;-78
2023/10/14 03:51:11;;;;;;;;;;;;;;;14.53;50.25;99868.50;5074012;28;19916;-78
2023/10/14 03:53:38;;;;;;;;;;;;;;;14.54;50.75;99864.81;5073863;28;20377;-77
2023/10/14 03:56:03;;;;;;;;;;;;;;;14.51;50.93;99862.56;5073832;28;19913;-78
2023/10/14 03:58:32;;;;;;;;;;;;;;;14.55;49.93;99871.78;5074151;28;19912;-78
2023/10/14 04:00:59;;;;;;;;;;;;;;;14.47;50.59;99868.47;5073846;28;19916;-78
2023/10/14 04:03:39;;;;;;;;;;;;;;;14.41;51.30;99859.41;5073719;28;19951;-78
2023/10/14 04:06:07;;;;;;;;;;;;;;;14.40;51.50;99870.22;5072569;28;20026;-78
2023/10/14 04:08:39;;;;;;;;;;;;;;;14.37;50.88;99858.16;5073846;28;20289;-77
2023/10/14 04:11:14;;;;;;;;;;;;;;;14.37;51.46;99860.00;5073890;28;19921;-77
2023/10/14 04:16:47;;;;;;;;;;;;;;;14.28;51.47;99857.47;5070950;28;20294;-77
2023/10/14 04:19:27;;;;;;;;;;;;;;;14.28;52.09;99857.47;5073794;28;20410;-77
2023/10/14 04:22:25;;;;;;;;;;;;;;;14.25;52.03;99857.06;5073463;28;19912;-78
2023/10/14 04:25:05;;;;;;;;;;;;;;;14.23;51.59;99864.41;5073249;28;19912;-78
2023/10/14 04:27:35;;;;;;;;;;;;;;;14.22;51.33;99863.56;5073291;28;20416;-77
2023/10/14 04:30:11;;;;;;;;;;;;;;;14.21;51.90;99858.47;5072107;28;20011;-77
2023/10/14 04:35:23;;;;;;;;;;;;;;;14.11;52.22;99872.03;5073638;28;19916;-77
2023/10/14 04:37:51;;;;;;;;;;;;;;;14.08;51.45;99868.94;5073311;28;19912;-77
2023/10/14 04:40:35;;;;;;;;;;;;;;;14.08;52.41;99875.09;5073363;28;19912;-77
2023/10/14 04:45:45;;;;;;;;;;;;;;;14.14;52.07;99878.84;5073352;28;19913;-77
2023/10/14 04:48:14;;;;;;;;;;;;;;;14.10;51.79;99874.88;5073350;28;19908;-77
2023/10/14 04:50:40;;;;;;;;;;;;;;;14.08;51.91;99875.09;5073351;28;19920;-77
2023/10/14 04:53:06;;;;;;;;;;;;;;;14.11;51.78;99884.50;5072997;28;20321;-78
2023/10/14 04:55:36;;;;;;;;;;;;;;;14.12;51.60;99875.50;5071565;28;20405;-78
2023/10/14 05:00:43;;;;;;;;;;;;;;;14.09;51.86;99879.38;5073799;28;19913;-77
2023/10/14 05:03:09;;;;;;;;;;;;;;;14.14;52.03;99884.13;5073180;28;19952;-77
2023/10/14 05:05:38;;;;;;;;;;;;;;;14.12;51.63;99871.06;5072736;28;19921;-77
2023/10/14 05:08:04;;;;;;;;;;;;;;;14.13;51.51;99883.31;5072861;28;19916;-77
2023/10/14 05:10:30;;;;;;;;;;;;;;;14.14;51.39;99879.66;5072909;28;19912;-77
2023/10/14 05:12:56;;;;;;;;;;;;;;;14.12;51.79;99876.38;5072702;28;20304;-77
2023/10/14 05:15:21;;;;;;;;;;;;;;;14.15;51.65;99888.44;5072975;28;19923;-77
2023/10/14 05:17:50;;;;;;;;;;;;;;;14.24;51.48;99889.94;5073932;28;19958;-78
2023/10/14 05:23:05;;;;;;;;;;;;;;;14.33;51.53;99880.81;5067271;28;19966;-77
2023/10/14 05:25:30;;;;;;;;;;;;;;;14.36;50.62;99892.88;5072546;28;20348;-78
2023/10/14 05:27:56;;;;;;;;;;;;;;;14.33;50.98;99894.09;5072640;28;19911;-76
2023/10/14 05:30:22;;;;;;;;;;;;;;;14.33;51.44;99894.09;5072498;28;20360;-77
2023/10/14 05:32:48;;;;;;;;;;;;;;;14.39;50.89;99898.63;5072300;28;19912;-76
2023/10/14 05:35:13;;;;;;;;;;;;;;;14.40;51.08;99891.47;5072197;28;19920;-76
2023/10/14 05:37:41;;;;;;;;;;;;;;;14.41;51.38;99899.25;5072225;28;19920;-77
2023/10/14 05:40:13;;;;;;;;;;;;;;;14.45;50.55;99900.53;5072227;28;20373;-76
2023/10/14 05:42:39;;;;;;;;;;;;;;;14.46;51.15;99893.38;5072262;28;19912;-77
2023/10/14 05:45:04;;;;;;;;;;;;;;;14.50;50.81;99895.47;5072202;28;20301;-77
2023/10/14 05:47:31;;;;;;;;;;;;;;;14.55;50.73;99897.53;5072279;28;19955;-77
2023/10/14 05:49:57;;;;;;;;;;;;;;;14.58;50.96;99895.31;5072080;28;19913;-76
2023/10/14 05:52:24;;;;;;;;;;;;;;;14.66;50.52;99896.16;5072108;28;19919;-77
2023/10/14 05:54:50;;;;;;;;;;;;;;;14.72;50.84;99890.88;5071930;28;20377;-78
2023/10/14 05:57:18;;;;;;;;;;;;;;;14.83;50.26;99890.31;5072210;28;19912;-77
2023/10/14 05:59:46;;;;;;;;;;;;;;;14.91;49.87;99894.69;5071899;28;19919;-76
2023/10/14 06:02:13;;;;;;;;;;;;;;;14.92;50.12;99896.34;5072091;28;19912;-76
2023/10/14 06:04:41;;;;;;;;;;;;;;;14.95;51.13;99893.28;5071790;28;19977;-77
2023/10/14 06:07:08;;;;;;;;;;;;;;;14.98;50.57;99890.22;5071936;28;19996;-77
2023/10/14 06:09:34;;;;;;;;;;;;;;;15.04;50.39;99894.75;5072014;28;19905;-77
2023/10/14 06:12:00;;;;;;;;;;;;;;;15.14;50.65;99899.69;5070695;28;20011;-77
2023/10/14 06:14:25;;;;;;;;;;;;;;;15.25;50.33;99894.63;5071956;28;20408;-77
2023/10/14 06:16:51;;;;;;;;;;;;;;;15.36;50.30;99898.53;5072137;28;19917;-77
2023/10/14 06:19:18;;;;;;;;;;;;;;;15.44;50.19;99898.34;5072337;28;19913;-78
2023/10/14 06:21:44;;;;;;;;;;;;;;;15.54;50.68;99895.31;5072641;28;20011;-78
2023/10/14 06:24:10;;;;;;;;;;;;;;;15.64;50.13;99892.31;5073469;28;19912;-77
2023/10/14 06:26:36;;;;;;;;;;;;;;;15.74;50.33;99892.75;5073394;28;19913;-77
2023/10/14 06:29:01;;;;;;;;;;;;;;;15.82;50.27;99896.03;5072038;28;20416;-76
2023/10/14 06:31:26;;;;;;;;;;;;;;;15.91;50.31;99895.84;5071763;28;19920;-76
2023/10/14 06:33:54;;;;;;;;;;;;;;;15.99;50.12;99892.97;5071859;28;20389;-77
2023/10/14 06:36:23;;;;;;;;;;;;;;;16.10;49.57;99895.84;5071810;28;19913;-77
2023/10/14 06:38:49;;;;;;;;;;;;;;;16.19;49.86;99891.13;5071932;28;19974;-77
2023/10/14 06:41:17;;;;;;;;;;;;;;;16.28;49.86;99889.88;5072155;28;19913;-77
2023/10/14 06:43:43;;;;;;;;;;;;;;;16.39;49.43;99896.47;5071504;28;20000;-77
2023/10/14 06:46:11;;;;;;;;;;;;;;;16.50;49.13;99891.31;5071527;28;19948;-77
2023/10/14 06:48:38;;;;;;;;;;;;;;;16.62;48.87;99891.50;5073338;28;19912;-76
2023/10/14 06:51:03;;;;;;;;;;;;;;;16.76;49.05;99881.66;5075611;28;19970;-77
2023/10/14 06:53:29;;;;;;;;;;;;;;;16.86;48.97;99882.03;5075577;28;19917;-77
2023/10/14 06:55:54;;;;;;;;;;;;;;;16.96;49.24;99885.06;5075249;28;19912;-76
2023/10/14 06:58:21;;;;;;;;;;;;;;;17.08;48.94;99886.03;5075430;28;20320;-77
2023/10/14 07:00:48;;;;;;;;;;;;;;;17.19;48.65;99878.44;5074247;28;19913;-77
2023/10/14 07:03:14;;;;;;;;;;;;;;;17.31;48.72;99874.06;5074224;28;19913;-77
2023/10/14 07:05:56;;;;;;;;;;;;;;;17.39;49.06;99874.63;5075617;28;19920;-77
2023/10/14 07:08:23;;;;;;;;;;;;;;;17.48;49.03;99876.00;5074218;28;19913;-77
2023/10/14 07:10:50;;;;;;;;;;;;;;;17.57;48.35;99873.06;5076204;28;19916;-78
2023/10/14 07:13:17;;;;;;;;;;;;;;;17.66;48.35;99871.78;5077778;28;19924;-78
2023/10/14 07:15:44;;;;;;;;;;;;;;;17.74;48.35;99872.38;5076035;28;19982;-77
2023/10/14 07:18:13;;;;;;;;;;;;;;;17.82;48.10;99870.47;5075026;28;19912;-77
2023/10/14 07:20:39;;;;;;;;;;;;;;;17.91;48.01;99866.53;5074936;28;19913;-77
2023/10/14 07:23:04;;;;;;;;;;;;;;;18.00;48.08;99871.38;5074953;28;19920;-77
2023/10/14 07:25:42;;;;;;;;;;;;;;;18.07;48.05;99866.78;5074901;28;19912;-78
2023/10/14 07:28:14;;;;;;;;;;;;;;;18.14;47.45;99860.56;5074652;28;19916;-77
2023/10/14 07:30:46;;;;;;;;;;;;;;;18.22;47.04;99869.13;5075022;28;19970;-77
2023/10/14 07:33:16;;;;;;;;;;;;;;;18.31;47.34;99859.78;5074766;28;20008;-78
2023/10/14 07:35:41;;;;;;;;;;;;;;;18.37;47.35;99858.91;5075005;28;19913;-77
2023/10/14 07:38:08;;;;;;;;;;;;;;;18.45;47.02;99856.97;5074605;28;19991;-78
2023/10/14 07:40:34;;;;;;;;;;;;;;;18.51;46.91;99862.25;5074991;28;19912;-77
2023/10/14 07:43:07;;;;;;;;;;;;;;;18.56;47.19;99857.06;5073418;28;19969;-78
2023/10/14 07:45:36;;;;;;;;;;;;;;;18.64;46.92;99866.72;5074774;28;19938;-77
2023/10/14 07:48:08;;;;;;;;;;;;;;;18.72;46.67;99863.75;5073343;28;19912;-78
2023/10/14 07:50:34;;;;;;;;;;;;;;;18.82;47.15;99857.88;5074602;28;19913;-77
2023/10/14 07:53:07;;;;;;;;;;;;;;;18.88;46.74;99851.63;5074383;28;19920;-77
2023/10/14 07:55:43;;;;;;;;;;;;;;;18.94;46.86;99856.88;5074642;28;19912;-78
2023/10/14 07:58:10;;;;;;;;;;;;;;;19.00;46.89;99855.16;5074518;28;19905;-77
2023/10/14 08:00:48;;;;;;;;;;;;;;;19.09;46.27;99850.31;5073842;28;19973;-75
2023/10/14 08:03:18;;;;;;;;;;;;;;;19.19;46.40;99850.59;5074144;28;19912;-76
2023/10/14 08:05:45;;;;;;;;;;;;;;;19.25;46.54;99844.34;5074201;28;19963;-76
2023/10/14 08:08:11;;;;;;;;;;;;;;;19.34;46.05;99849.19;5074317;28;19919;-78
2023/10/14 08:10:36;;;;;;;;;;;;;;;19.44;45.83;99848.63;5074251;28;19913;-75
2023/10/14 08:13:04;;;;;;;;;;;;;;;19.53;45.86;99847.28;5073916;28;19923;-77
2023/10/14 08:15:29;;;;;;;;;;;;;;;19.62;45.83;99842.41;5074088;28;19912;-77
2023/10/14 08:17:58;;;;;;;;;;;;;;;19.70;46.10;99842.09;5072628;28;19912;-77
2023/10/14 08:20:23;;;;;;;;;;;;;;;19.78;45.84;99847.09;5073990;28;19919;-77
2023/10/14 08:22:48;;;;;;;;;;;;;;;19.84;45.68;99840.81;5074190;28;19912;-77
2023/10/14 08:25:16;;;;;;;;;;;;;;;19.93;45.44;99841.28;5073978;28;20011;-77
2023/10/14 08:27:41;;;;;;;;;;;;;;;20.01;45.15;99840.94;5073732;28;19923;-77
2023/10/14 08:30:13;;;;;;;;;;;;;;;20.08;45.33;99830.97;5073852;28;19904;-77
2023/10/14 08:32:39;;;;;;;;;;;;;;;20.17;45.27;99831.44;5073504;28;19912;-77
2023/10/14 08:35:14;;;;;;;;;;;;;;;20.25;44.94;99831.06;5073181;28;20650;-77
2023/10/14 08:37:40;;;;;;;;;;;;;;;20.33;44.61;99825.34;5073117;28;19935;-77
2023/10/14 08:40:06;;;;;;;;;;;;;;;20.41;44.33;99827.72;5073129;28;20274;-77
2023/10/14 08:42:32;;;;;;;;;;;;;;;20.48;44.42;99822.22;5073211;28;19912;-78
2023/10/14 08:44:58;;;;;;;;;;;;;;;20.56;44.27;99822.66;5072979;28;19960;-77
2023/10/14 08:47:24;;;;;;;;;;;;;;;20.66;44.28;99822.06;5073096;28;19963;-77
2023/10/14 08:49:51;;;;;;;;;;;;;;;20.76;44.05;99819.59;5073127;28;19944;-77
2023/10/14 08:52:18;;;;;;;;;;;;;;;20.83;43.84;99812.25;5073250;28;19972;-77
2023/10/14 08:54:43;;;;;;;;;;;;;;;20.92;43.54;99808.13;5072768;28;19916;-77
2023/10/14 08:57:09;;;;;;;;;;;;;;;20.99;43.25;99805.31;5072963;28;19912;-78
2023/10/14 08:59:34;;;;;;;;;;;;;;;21.06;43.23;99805.97;5072820;28;20385;-77
2023/10/14 09:02:00;;;;;;;;;;;;;;;21.15;43.02;99798.34;5072966;28;19999;-78
2023/10/14 09:04:29;;;;;;;;;;;;;;;21.25;43.22;99801.25;5073238;28;19920;-77
2023/10/14 09:07:03;;;;;;;;;;;;;;;21.36;42.79;99802.25;5073230;28;19912;-77
2023/10/14 09:09:30;;;;;;;;;;;;;;;21.45;42.25;99793.53;5072239;28;19919;-78
2023/10/14 09:12:06;;;;;;;;;;;;;;;21.54;42.43;99794.78;5072579;28;19912;-77
2023/10/14 09:14:31;;;;;;;;;;;;;;;21.64;42.51;99788.78;5072892;28;19921;-78
2023/10/14 09:16:58;;;;;;;;;;;;;;;21.74;42.21;99788.13;5072580;28;19919;-78
2023/10/14 09:19:23;;;;;;;;;;;;;;;21.86;42.08;99776.22;5072559;28;19912;-77
2023/10/14 09:21:49;;;;;;;;;;;;;;;21.99;42.19;99785.00;5071263;28;19994;-75
2023/10/14 09:24:18;;;;;;;;;;;;;;;22.06;40.82;99774.91;5072598;28;19962;-77
2023/10/14 09:26:44;;;;;;;;;;;;;;;22.10;40.67;99771.50;5072546;28;19916;-77
2023/10/14 09:29:09;;;;;;;;;;;;;;;22.20;41.47;99766.25;5071242;28;19916;-77
2023/10/14 09:31:38;;;;;;;;;;;;;;;22.32;40.76;99766.16;5072750;28;19919;-78
2023/10/14 09:34:03;;;;;;;;;;;;;;;22.44;40.85;99761.47;5072230;28;19917;-76
2023/10/14 09:36:33;;;;;;;;;;;;;;;22.58;41.07;99756.53;5072612;28;19912;-76
2023/10/14 09:39:00;;;;;;;;;;;;;;;22.69;40.79;99755.56;5070857;28;19912;-76
2023/10/14 09:41:28;;;;;;;;;;;;;;;22.80;40.00;99745.75;5072111;28;19912;-75
2023/10/14 09:43:54;;;;;;;;;;;;;;;22.94;39.86;99744.28;5072188;28;19983;-78
2023/10/14 09:46:20;;;;;;;;;;;;;;;23.02;38.18;99743.84;5072487;28;19935;-77
2023/10/14 09:48:46;;;;;;;;;;;;;;;23.11;40.09;99742.34;5072296;28;20429;-77
2023/10/14 09:51:14;;;;;;;;;;;;;;;23.24;40.06;99729.53;5072088;28;19963;-77
2023/10/14 09:53:39;;;;;;;;;;;;;;;23.34;38.48;99727.72;5066311;28;20040;-77
2023/10/14 09:56:07;;;;;;;;;;;;;;;23.45;39.66;99726.72;5051809;28;20396;-76
2023/10/14 09:58:35;;;;;;;;;;;;;;;23.58;38.76;99722.00;5051647;28;20317;-77
2023/10/14 10:01:03;;;;;;;;;;;;;;;23.66;37.82;99714.25;5051715;28;20004;-76
2023/10/14 10:03:31;;;;;;;;;;;;;;;23.76;38.43;99710.81;5051553;28;19913;-77
2023/10/14 10:06:04;;;;;;;;;;;;;;;23.89;37.79;99702.28;5051851;28;19913;-75
2023/10/14 10:08:44;;;;;;;;;;;;;;;24.00;37.06;99693.16;5051647;28;19919;-75
2023/10/14 10:11:10;;;;;;;;;;;;;;;24.13;37.96;99686.47;5051424;28;19913;-75
2023/10/14 10:13:38;;;;;;;;;;;;;;;24.23;37.37;99685.72;5051391;28;19940;-77
2023/10/14 10:16:04;;;;;;;;;;;;;;;24.31;36.31;99685.22;5051719;28;19913;-76
2023/10/14 10:18:49;;;;;;;;;;;;;;;24.38;36.20;99672.28;5051632;28;19913;-77
2023/10/14 10:21:16;;;;;;;;;;;;;;;24.51;36.26;99677.19;5051701;28;19913;-75
2023/10/14 10:23:42;;;;;;;;;;;;;;;24.64;37.50;99673.19;5055607;28;20317;-76
2023/10/14 10:26:08;;;;;;;;;;;;;;;24.74;36.38;99667.81;5055960;28;20416;-77
2023/10/14 10:28:37;;;;;;;;;;;;;;;24.84;37.04;99659.72;5055588;28;19913;-77
2023/10/14 10:31:10;;;;;;;;;;;;;;;24.88;34.91;99654.59;5055789;28;19919;-77
2023/10/14 10:33:54;;;;;;;;;;;;;;;24.92;34.69;99650.28;5055659;28;19924;-77
2023/10/14 10:36:21;;;;;;;;;;;;;;;24.90;35.66;99649.75;5055937;28;19913;-78
2023/10/14 10:38:46;;;;;;;;;;;;;;;24.99;34.85;99640.06;5055819;28;19917;-77
2023/10/14 10:41:24;;;;;;;;;;;;;;;25.05;34.37;99633.56;5055568;28;19916;-78
2023/10/14 10:43:49;;;;;;;;;;;;;;;25.17;35.96;99636.78;5054313;28;20312;-77
2023/10/14 10:46:27;;;;;;;;;;;;;;;25.28;35.81;99622.22;5054618;28;19913;-76
2023/10/14 10:48:53;;;;;;;;;;;;;;;25.23;35.77;99591.66;5054577;28;19912;-78
2023/10/14 10:51:18;;;;;;;;;;;;;;;25.50;35.74;99621.91;5055876;28;19919;-77
2023/10/14 10:53:48;;;;;;;;;;;;;;;25.59;33.97;99617.56;5055232;28;19917;-76
2023/10/14 10:56:14;;;;;;;;;;;;;;;25.68;32.86;99614.31;5054217;28;19920;-76
2023/10/14 10:58:39;;;;;;;;;;;;;;;25.78;33.50;99608.88;5055466;28;19912;-77
2023/10/14 11:01:04;;;;;;;;;;;;;;;25.87;34.14;99599.09;5071055;28;19962;-77
2023/10/14 11:03:30;;;;;;;;;;;;;;;25.97;34.72;99596.34;5055130;28;19919;-77
2023/10/14 11:05:56;;;;;;;;;;;;;;;26.05;31.81;99592.28;5055098;28;20405;-77
2023/10/14 11:08:22;;;;;;;;;;;;;;;26.09;33.85;99588.75;5055562;28;20038;-77
2023/10/14 11:10:49;;;;;;;;;;;;;;;26.15;32.25;99581.41;5056452;28;19917;-77
2023/10/14 11:13:16;;;;;;;;;;;;;;;26.20;31.79;99581.38;5056707;28;19917;-75
2023/10/14 11:15:43;;;;;;;;;;;;;;;26.21;32.54;99572.16;5056619;28;20317;-77
2023/10/14 11:18:09;;;;;;;;;;;;;;;26.19;33.37;99564.31;5057643;28;20094;-76
2023/10/14 11:20:43;;;;;;;;;;;;;;;26.13;33.12;99568.16;5055384;28;19988;-75
2023/10/14 11:23:08;;;;;;;;;;;;;;;25.98;32.45;99555.47;5053811;28;19948;-75
2023/10/14 11:25:40;;;;;;;;;;;;;;;25.89;33.05;99554.44;5055217;28;20014;-78
2023/10/14 11:28:06;;;;;;;;;;;;;;;25.83;32.99;99552.06;5053448;28;20367;-75
2023/10/14 11:30:31;;;;;;;;;;;;;;;25.76;33.89;99546.13;5054675;28;19913;-77
2023/10/14 11:32:58;;;;;;;;;;;;;;;25.68;33.54;99541.31;5054685;28;19920;-77
2023/10/14 11:35:25;;;;;;;;;;;;;;;25.59;33.28;99541.84;5053956;28;19913;-77
2023/10/14 11:38:00;;;;;;;;;;;;;;;25.50;34.57;99540.81;5054699;28;19940;-77
2023/10/14 11:40:40;;;;;;;;;;;;;;;25.38;34.46;99534.09;5053359;28;19939;-77
2023/10/14 11:43:05;;;;;;;;;;;;;;;25.26;34.26;99526.25;5054791;28;19919;-76
2023/10/14 11:45:31;;;;;;;;;;;;;;;25.17;34.41;99530.59;5054292;28;20257;-76
2023/10/14 11:48:00;;;;;;;;;;;;;;;25.06;34.76;99516.31;5054239;28;20385;-76
2023/10/14 11:50:25;;;;;;;;;;;;;;;24.97;35.14;99517.91;5054494;28;19913;-78
2023/10/14 11:52:53;;;;;;;;;;;;;;;24.88;34.76;99514.16;5054229;28;20322;-76
2023/10/14 11:55:19;;;;;;;;;;;;;;;24.81;35.50;99506.34;5054023;28;19912;-78
2023/10/14 11:57:46;;;;;;;;;;;;;;;24.74;34.50;99505.81;5053085;28;19913;-77
2023/10/14 12:00:12;;;;;;;;;;;;;;;24.70;33.92;99510.13;5054328;28;20003;-76
2023/10/14 12:02:39;;;;;;;;;;;;;;;24.64;34.61;99495.81;5052911;28;20302;-77
2023/10/14 12:05:04;;;;;;;;;;;;;;;24.60;35.30;99494.75;5053884;28;20007;-75
2023/10/14 12:07:32;;;;;;;;;;;;;;;24.57;36.05;99489.88;5054210;28;20375;-77
2023/10/14 12:09:59;;;;;;;;;;;;;;;24.52;34.65;99486.34;5069663;28;20294;-77
2023/10/14 12:12:24;;;;;;;;;;;;;;;24.47;34.76;99487.16;5053940;28;19913;-76
2023/10/14 12:14:50;;;;;;;;;;;;;;;24.43;34.86;99485.28;5053815;28;19917;-77
2023/10/14 12:17:15;;;;;;;;;;;;;;;24.38;35.73;99475.28;5052422;28;19912;-75
2023/10/14 12:19:40;;;;;;;;;;;;;;;24.36;35.65;99477.44;5054167;28;19916;-76
2023/10/14 12:22:06;;;;;;;;;;;;;;;24.33;35.59;99470.69;5053983;28;19916;-77
2023/10/14 12:24:32;;;;;;;;;;;;;;;24.30;33.80;99471.25;5053809;28;20286;-78
2023/10/14 12:26:57;;;;;;;;;;;;;;;24.29;35.00;99466.13;5053786;28;19913;-77
2023/10/14 12:29:22;;;;;;;;;;;;;;;24.26;35.52;99464.75;5053812;28;19919;-77
2023/10/14 12:31:48;;;;;;;;;;;;;;;24.25;35.99;99451.50;5053878;28;20004;-78
2023/10/14 12:34:14;;;;;;;;;;;;;;;24.25;36.15;99462.31;5053804;28;19917;-77
2023/10/14 12:36:42;;;;;;;;;;;;;;;24.24;35.38;99453.41;5053602;28;19919;-77
2023/10/14 12:39:21;;;;;;;;;;;;;;;24.24;34.78;99449.91;5053625;28;19995;-75
2023/10/14 12:41:49;;;;;;;;;;;;;;;24.24;35.31;99449.91;5053445;28;19960;-77
2023/10/14 12:44:15;;;;;;;;;;;;;;;24.23;35.13;99443.69;5068714;28;19913;-75
2023/10/14 12:46:40;;;;;;;;;;;;;;;24.25;35.42;99448.81;5052309;28;20090;-76
2023/10/14 12:49:10;;;;;;;;;;;;;;;24.23;34.53;99441.00;5052940;28;19913;-78
2023/10/14 12:51:42;;;;;;;;;;;;;;;24.26;35.56;99435.06;5054295;28;19913;-77
2023/10/14 12:54:09;;;;;;;;;;;;;;;24.29;35.67;99431.03;5053781;28;19917;-77
2023/10/14 12:56:38;;;;;;;;;;;;;;;24.30;34.74;99425.38;5053342;28;20309;-78
2023/10/14 12:59:12;;;;;;;;;;;;;;;24.31;35.35;99427.00;5053283;28;20003;-78
2023/10/14 13:01:38;;;;;;;;;;;;;;;24.30;35.41;99422.69;5053120;28;19966;-77
2023/10/14 13:04:05;;;;;;;;;;;;;;;24.32;35.02;99425.91;5053007;28;19924;-78
2023/10/14 13:06:30;;;;;;;;;;;;;;;24.35;34.65;99414.56;5053026;28;19920;-77
2023/10/14 13:08:59;;;;;;;;;;;;;;;24.37;34.80;99412.41;5053234;28;19999;-77
2023/10/14 13:11:25;;;;;;;;;;;;;;;24.38;33.88;99407.81;5053180;28;19952;-77
2023/10/14 13:13:53;;;;;;;;;;;;;;;24.40;35.00;99405.66;5052912;28;20051;-78
2023/10/14 13:16:22;;;;;;;;;;;;;;;24.41;35.36;99399.19;5052881;28;19913;-76